sensor_id;sensor_type;location;lat;lon;timestamp;pressure;altitude;pressure_sealevel;temperature;humidity
15558;BME280;7880;50.110;9.372;2022-08-20T00:04:56;17.945234443299704;;;17.312;88.28090105384956
15558;BME280;7880;50.110;9.372;2022-08-20T00:10:03;18.025918167695636;;;17.437;87.76247414774905
15558;BME280;7880;50.110;9.372;2022-08-20T00:15:06;17.854465342412006;;;17.437;87.71101461191586
15558;BME280;7880;50.110;9.372;2022-08-20T00:20:12;17.698141000815667;;;17.187;88.67855594407915
15558;BME280;7880;50.110;9.372;2022-08-20T00:25:07;17.36532236644998;;;16.937;90.24658632627184
15558;BME280;7880;50.110;9.372;2022-08-20T00:30:12;17.34010888520279;;;16.875;90.04146665173496
15558;BME280;7880;50.110;9.372;2022-08-20T00:35:16;17.54181693890714;;;17.0;88.44749446825288
15558;BME280;7880;50.110;9.372;2022-08-20T00:40:23;17.4510482571146;;;16.937;89.08098286424811
15558;BME280;7880;50.110;9.372;2022-08-20T00:45:34;17.395578553550877;;;16.812;89.28732415538919
15558;BME280;7880;50.110;9.372;2022-08-20T00:50:35;17.299767330341275;;;16.75;89.40905211749316
15558;BME280;7880;50.110;9.372;2022-08-20T00:55:35;17.370365063572535;;;16.75;89.00237708222299
15558;BME280;7880;50.110;9.372;2022-08-20T01:00:42;17.385493156686426;;;16.875;88.87111949361366
15558;BME280;7880;50.110;9.372;2022-08-20T01:05:50;17.178742777515435;;;16.75;89.453289335513
15558;BME280;7880;50.110;9.372;2022-08-20T01:10:50;17.017376967851305;;;16.5;89.24287708902405
15558;BME280;7880;50.110;9.372;2022-08-20T01:15:53;17.062761071696876;;;16.5;89.45555414179567
15558;BME280;7880;50.110;9.372;2022-08-20T01:21:00;17.123273246828468;;;16.562;88.48422799877112
15558;BME280;7880;50.110;9.372;2022-08-20T01:26:03;16.95686486606137;;;16.437;89.24639113460553
15558;BME280;7880;50.110;9.372;2022-08-20T01:31:06;17.072846431308427;;;16.562;88.96228463095333
15558;BME280;7880;50.110;9.372;2022-08-20T01:36:19;17.022419644892217;;;16.562;89.13714619300113
15558;BME280;7880;50.110;9.372;2022-08-20T01:41:23;16.95686486606137;;;16.437;88.62975783471487
15558;BME280;7880;50.110;9.372;2022-08-20T01:46:19;16.795499466179173;;;16.25;90.13586749100435
15558;BME280;7880;50.110;9.372;2022-08-20T01:51:27;16.81062745975796;;;16.25;90.4298321286793
15558;BME280;7880;50.110;9.372;2022-08-20T01:56:29;16.729944857605734;;;16.25;89.48530566569787
15558;BME280;7880;50.110;9.372;2022-08-20T02:01:39;16.654304985754425;;;16.187;90.02337098531478
15558;BME280;7880;50.110;9.372;2022-08-20T02:06:48;16.795499466179173;;;16.312;90.21554549496982
15558;BME280;7880;50.110;9.372;2022-08-20T02:11:42;16.911480817222035;;;16.375;89.93189971778271
15558;BME280;7880;50.110;9.372;2022-08-20T02:16:46;16.785414138581835;;;16.375;90.2037126573181
15558;BME280;7880;50.110;9.372;2022-08-20T02:21:53;16.689603584469296;;;16.312;90.71261704177742
15558;BME280;7880;50.110;9.372;2022-08-20T02:26:56;16.80558479494066;;;16.312;89.70145830824066
15558;BME280;7880;50.110;9.372;2022-08-20T02:31:57;16.785414138581835;;;16.312;89.60874888019688
15558;BME280;7880;50.110;9.372;2022-08-20T02:37:01;16.740030178800225;;;16.312;89.64586414044989
15558;BME280;7880;50.110;9.372;2022-08-20T02:42:11;16.634134364320197;;;16.187;89.63860524626567
15558;BME280;7880;50.110;9.372;2022-08-20T02:47:08;16.785414138581835;;;16.312;89.18902271560349
15558;BME280;7880;50.110;9.372;2022-08-20T02:52:11;16.75515816277475;;;16.312;89.45641386277765
15558;BME280;7880;50.110;9.372;2022-08-20T02:57:15;16.58370783110731;;;16.187;90.47682748886803
15558;BME280;7880;50.110;9.372;2022-08-20T03:02:18;16.634134364320197;;;16.125;90.60502513123116
15558;BME280;7880;50.110;9.372;2022-08-20T03:07:23;16.714816877996782;;;16.25;89.95624981318656
15558;BME280;7880;50.110;9.372;2022-08-20T03:12:24;16.82071279026568;;;16.375;90.02732771887955
15558;BME280;7880;50.110;9.372;2022-08-20T03:17:27;16.90139547623694;;;16.437;89.68095156790622
15558;BME280;7880;50.110;9.372;2022-08-20T03:22:29;16.946779519837584;;;16.562;89.86702359153985
15558;BME280;7880;50.110;9.372;2022-08-20T03:27:33;16.89635280618095;;;16.562;89.69098098593616
15558;BME280;7880;50.110;9.372;2022-08-20T03:32:43;17.027462322224164;;;16.687;89.63743623038022
15558;BME280;7880;50.110;9.372;2022-08-20T03:37:42;17.062761071696876;;;16.75;90.03497558705509
15558;BME280;7880;50.110;9.372;2022-08-20T03:42:47;17.17370009145234;;;16.875;89.52714012935105
15558;BME280;7880;50.110;9.372;2022-08-20T03:47:49;17.11318788139615;;;16.875;89.82834910141833
15558;BME280;7880;50.110;9.372;2022-08-20T03:52:53;17.047633034462343;;;16.812;89.67703607819777
15558;BME280;7880;50.110;9.372;2022-08-20T03:57:58;17.027462322224164;;;16.75;91.29546951294321
15558;BME280;7880;50.110;9.372;2022-08-20T04:03:00;17.19891352467821;;;16.937;90.3276905882236
15558;BME280;7880;50.110;9.372;2022-08-20T04:08:03;17.19891352467821;;;16.875;91.60340685677545
15558;BME280;7880;50.110;9.372;2022-08-20T04:13:08;17.23421234341804;;;16.937;91.33135479857006
15558;BME280;7880;50.110;9.372;2022-08-20T04:18:14;17.208998900005827;;;16.937;90.68509482477847
15558;BME280;7880;50.110;9.372;2022-08-20T04:23:17;17.324980799946935;;;17.062;93.77114565534235
15558;BME280;7880;50.110;9.372;2022-08-20T04:28:28;17.380450458690756;;;17.125;93.97480084910795
15558;BME280;7880;50.110;9.372;2022-08-20T04:33:28;17.239255032973595;;;17.0;94.38159658958588
15558;BME280;7880;50.110;9.372;2022-08-20T04:38:30;17.314895411231554;;;17.062;94.29574382494246
15558;BME280;7880;50.110;9.372;2022-08-20T04:43:35;17.350194276828553;;;17.062;94.01342884870152
15558;BME280;7880;50.110;9.372;2022-08-20T04:48:38;17.360279669618468;;;17.125;94.57780192381814
15558;BME280;7880;50.110;9.372;2022-08-20T04:53:42;17.22916965415352;;;17.0;93.46147440884427
15558;BME280;7880;50.110;9.372;2022-08-20T04:58:48;17.28463925207034;;;17.0;93.95191598181006
15558;BME280;7880;50.110;9.372;2022-08-20T05:03:55;17.335066189826467;;;17.062;95.43486599074791
15558;BME280;7880;50.110;9.372;2022-08-20T05:08:58;17.350194276828553;;;17.125;94.78895155049078
15558;BME280;7880;50.110;9.372;2022-08-20T05:14:08;17.33002349474118;;;17.125;96.23590109257651
15558;BME280;7880;50.110;9.372;2022-08-20T05:19:06;17.39053585497313;;;17.187;95.14473820717589
15558;BME280;7880;50.110;9.372;2022-08-20T05:24:15;17.435920152650215;;;17.25;96.29777680202002
15558;BME280;7880;50.110;9.372;2022-08-20T05:29:17;17.4510482571146;;;17.25;95.22700296627357
15558;BME280;7880;50.110;9.372;2022-08-20T05:34:19;17.536774231889286;;;17.312;95.25414492734565
15558;BME280;7880;50.110;9.372;2022-08-20T05:39:23;17.683012853568652;;;17.437;96.41565931573894
15558;BME280;7880;50.110;9.372;2022-08-20T05:44:27;17.70318371714675;;;17.5;96.6308523207673
15558;BME280;7880;50.110;9.372;2022-08-20T05:49:33;17.693098284775623;;;17.5;96.57638005685536
15558;BME280;7880;50.110;9.372;2022-08-20T05:54:40;17.77378177634091;;;17.625;97.54874143261317
15558;BME280;7880;50.110;9.372;2022-08-20T05:59:38;17.829251720011236;;;17.687;97.43938955915092
15558;BME280;7880;50.110;9.372;2022-08-20T06:04:51;17.894807153387227;;;17.75;98.68607380377644
15558;BME280;7880;50.110;9.372;2022-08-20T06:09:44;18.01078996369615;;;17.875;99.44049788653362
15558;BME280;7880;50.110;9.372;2022-08-20T06:14:49;18.04608911043615;;;17.937;98.69634021996406
15558;BME280;7880;50.110;9.372;2022-08-20T06:19:55;18.076345533278072;;;17.937;99.73120553869893
15558;BME280;7880;50.110;9.372;2022-08-20T06:24:56;18.12173018718604;;;18.0;99.48256295832894
15558;BME280;7880;50.110;9.372;2022-08-20T06:30:01;18.172157608065753;;;18.062;99.69151840472605
15558;BME280;7880;50.110;9.372;2022-08-20T06:35:07;18.207456819998335;;;18.062;99.43077412452298
15558;BME280;7880;50.110;9.372;2022-08-20T06:40:13;18.252841542009264;;;18.125;98.97470574250109
15558;BME280;7880;50.110;9.372;2022-08-20T06:45:17;18.26292703899089;;;18.187;99.55543786141703
15558;BME280;7880;50.110;9.372;2022-08-20T06:50:21;18.222585058049297;;;18.125;99.87393836305124
15558;BME280;7880;50.110;9.372;2022-08-20T06:55:22;18.267969787918265;;;18.125;100.0
15558;BME280;7880;50.110;9.372;2022-08-20T07:00:27;18.197371329419546;;;18.062;100.0
15558;BME280;7880;50.110;9.372;2022-08-20T07:05:32;18.20241407456342;;;18.0;100.0
15558;BME280;7880;50.110;9.372;2022-08-20T07:10:34;18.141901152045467;;;17.937;100.0
15558;BME280;7880;50.110;9.372;2022-08-20T07:15:41;18.106601966597374;;;17.875;100.0
15558;BME280;7880;50.110;9.372;2022-08-20T07:20:42;18.106601966597374;;;17.875;100.0
15558;BME280;7880;50.110;9.372;2022-08-20T07:25:48;18.01583269807161;;;17.812;100.0
15558;BME280;7880;50.110;9.372;2022-08-20T07:37:46;18.06626005783328;;;17.75;100.0
15558;BME280;7880;50.110;9.372;2022-08-20T07:42:49;18.16711486466811;;;17.875;100.0
15558;BME280;7880;50.110;9.372;2022-08-20T07:48:05;18.338568303460487;;;18.062;100.0
15558;BME280;7880;50.110;9.372;2022-08-20T07:53:00;18.39908136218437;;;18.125;100.0
15558;BME280;7880;50.110;9.372;2022-08-20T07:58:08;18.681476190366084;;;18.375;100.0
15558;BME280;7880;50.110;9.372;2022-08-20T08:03:09;19.039513802528383;;;18.75;100.0
15558;BME280;7880;50.110;9.372;2022-08-20T08:08:12;19.165583733521636;;;18.937;100.0
15558;BME280;7880;50.110;9.372;2022-08-20T08:13:15;19.296696654713013;;;19.125;100.0
15558;BME280;7880;50.110;9.372;2022-08-20T08:18:22;19.30173946330324;;;19.187;99.48739667608477
15558;BME280;7880;50.110;9.372;2022-08-20T08:23:24;19.296696654713013;;;19.187;98.7088439130423
15558;BME280;7880;50.110;9.372;2022-08-20T08:28:29;19.437895405251766;;;19.25;98.2164901164512
15558;BME280;7880;50.110;9.372;2022-08-20T08:33:32;19.488323585741455;;;19.312;96.57551008950608
15558;BME280;7880;50.110;9.372;2022-08-20T08:38:51;19.881664392404492;;;19.625;96.13632818596939
15558;BME280;7880;50.110;9.372;2022-08-20T08:43:43;19.846364504098894;;;19.75;94.26245570586693
15558;BME280;7880;50.110;9.372;2022-08-20T08:48:47;20.10354973115609;;;19.937;93.72310052948116
15558;BME280;7880;50.110;9.372;2022-08-20T08:53:50;20.179192589060403;;;20.062;93.70586328239678
15558;BME280;7880;50.110;9.372;2022-08-20T08:58:57;20.22457833523513;;;20.062;92.66859783279799
15558;BME280;7880;50.110;9.372;2022-08-20T09:03:56;20.340564238117075;;;20.187;90.50976655319067
15558;BME280;7880;50.110;9.372;2022-08-20T09:09:02;20.693565759435295;;;20.437;90.09599476813919
15558;BME280;7880;50.110;9.372;2022-08-20T09:14:05;20.93058186681592;;;20.75;86.3735754673773
15558;BME280;7880;50.110;9.372;2022-08-20T10:21:24;22.130800961988278;;;21.937;81.2787121357257
15558;BME280;7880;50.110;9.372;2022-08-20T11:32:29;21.95934008192853;;;21.5;95.4850962049165
15558;BME280;7880;50.110;9.372;2022-08-20T14:14:12;21.797965443326394;;;21.375;86.0266529950148
15558;BME280;7880;50.110;9.372;2022-08-20T14:19:17;22.35269201207557;;;21.687;84.30837972743758
15558;BME280;7880;50.110;9.372;2022-08-20T14:24:19;22.851948934886604;;;22.375;86.82430652654837
15558;BME280;7880;50.110;9.372;2022-08-20T14:29:33;22.720830678963104;;;22.5;89.64352062290499
15558;BME280;7880;50.110;9.372;2022-08-20T14:34:29;22.77630376322777;;;22.5;88.03395517535535
15558;BME280;7880;50.110;9.372;2022-08-20T14:39:30;22.635099618003004;;;22.375;84.97910870121575
15558;BME280;7880;50.110;9.372;2022-08-20T14:44:34;22.559454634063876;;;22.312;82.33978997790607
15558;BME280;7880;50.110;9.372;2022-08-20T14:49:38;22.60484161656932;;;22.312;80.72000771064631
15558;BME280;7880;50.110;9.372;2022-08-20T14:54:46;22.45859475734178;;;22.25;79.97758365687156
15558;BME280;7880;50.110;9.372;2022-08-20T14:59:47;22.55441163746291;;;22.25;79.98114711063187
15558;BME280;7880;50.110;9.372;2022-08-20T15:04:55;22.473723731428617;;;22.187;85.94828729359227
15558;BME280;7880;50.110;9.372;2022-08-20T15:09:56;22.514067675132537;;;22.25;83.69966539709797
15558;BME280;7880;50.110;9.372;2022-08-20T15:15:04;22.61492761588306;;;22.312;86.43218743042277
15558;BME280;7880;50.110;9.372;2022-08-20T15:20:10;22.645185620809208;;;22.375;92.92794374640611
15558;BME280;7880;50.110;9.372;2022-08-20T15:25:10;22.972981345746668;;;22.625;90.30812453760971
15558;BME280;7880;50.110;9.372;2022-08-20T15:30:14;23.542844532994785;;;23.187;81.60945626899813
15558;BME280;7880;50.110;9.372;2022-08-20T15:35:15;23.4419835212233;;;23.375;71.4421094355562
15558;BME280;7880;50.110;9.372;2022-08-20T15:40:22;23.73448077608482;;;23.562;70.43259446801065
15558;BME280;7880;50.110;9.372;2022-08-20T15:45:22;23.613447310501943;;;23.625;66.02560632413297
15558;BME280;7880;50.110;9.372;2022-08-20T15:51:15;23.603361195937033;;;23.625;68.05105051388396
15558;BME280;7880;50.110;9.372;2022-08-20T15:56:03;23.653791780403118;;;23.625;66.39216490751059
15558;BME280;7880;50.110;9.372;2022-08-20T16:01:11;23.653791780403118;;;23.687;64.8650111577681
15558;BME280;7880;50.110;9.372;2022-08-20T16:06:08;23.905945139291;;;23.875;62.51314833515648
15558;BME280;7880;50.110;9.372;2022-08-20T16:11:18;23.951332821161486;;;23.937;59.65661330757137
15558;BME280;7880;50.110;9.372;2022-08-20T16:16:24;23.86055748099461;;;23.875;57.778050462885425
15558;BME280;7880;50.110;9.372;2022-08-20T16:21:23;23.946289744233944;;;23.937;56.811359081762376
15558;BME280;7880;50.110;9.372;2022-08-20T16:26:32;23.885772843804443;;;23.937;57.21227420248454
15558;BME280;7880;50.110;9.372;2022-08-20T16:31:34;23.97150513178203;;;24.0;57.717444279855194
15558;BME280;7880;50.110;9.372;2022-08-20T16:36:34;23.77986836889759;;;23.875;58.26491745735114
15558;BME280;7880;50.110;9.372;2022-08-20T16:41:39;23.81516984627233;;;23.812;58.887567239829245
15558;BME280;7880;50.110;9.372;2022-08-20T16:46:48;23.84542826680117;;;23.812;56.98709201576715
15558;BME280;7880;50.110;9.372;2022-08-20T16:51:52;23.825255985284457;;;23.812;58.136165582269854
15558;BME280;7880;50.110;9.372;2022-08-20T16:56:57;23.875686697807396;;;23.875;57.15733910100332
15558;BME280;7880;50.110;9.372;2022-08-20T17:02:07;23.91098821389023;;;23.875;57.060691955904396
15558;BME280;7880;50.110;9.372;2022-08-20T17:07:02;23.86055748099461;;;23.812;55.58102426814796
15558;BME280;7880;50.110;9.372;2022-08-20T17:12:12;23.739523840788753;;;23.75;55.79988908236366
15558;BME280;7880;50.110;9.372;2022-08-20T17:17:23;23.679007083550097;;;23.687;55.92834594850541
15558;BME280;7880;50.110;9.372;2022-08-20T17:22:18;23.58318897029967;;;23.625;53.05692339356827
15558;BME280;7880;50.110;9.372;2022-08-20T17:27:36;23.578145914617927;;;23.562;54.300054148763145
15558;BME280;7880;50.110;9.372;2022-08-20T17:32:27;23.45206961716176;;;23.5;53.03078833324633
15558;BME280;7880;50.110;9.372;2022-08-20T17:37:32;23.371380882250378;;;23.312;51.730404995771664
15558;BME280;7880;50.110;9.372;2022-08-20T17:42:45;23.26547703074757;;;23.25;51.879879108375604
15558;BME280;7880;50.110;9.372;2022-08-20T17:47:39;23.169659370934824;;;23.125;52.1821972670076
15558;BME280;7880;50.110;9.372;2022-08-20T17:52:46;23.09401392424479;;;23.062;51.890998784376336
15558;BME280;7880;50.110;9.372;2022-08-20T17:57:52;22.99819645244279;;;22.937;52.269464535114736
15558;BME280;7880;50.110;9.372;2022-08-20T18:03:10;22.841862908215262;;;22.75;53.440741081842454
15558;BME280;7880;50.110;9.372;2022-08-20T18:08:10;22.69057264784351;;;22.562;55.28554178626459
15558;BME280;7880;50.110;9.372;2022-08-20T18:13:06;22.544325645134087;;;22.437;55.60074492847618
15558;BME280;7880;50.110;9.372;2022-08-20T18:18:16;22.372863953659543;;;22.25;55.90925841653559
15558;BME280;7880;50.110;9.372;2022-08-20T18:23:15;22.181230696622514;;;22.0;60.266426841578145
15558;BME280;7880;50.110;9.372;2022-08-20T18:28:22;21.93916823580512;;;21.687;65.74824788261797
15558;BME280;7880;50.110;9.372;2022-08-20T18:33:27;21.697106445539976;;;21.437;70.11839471157978
15558;BME280;7880;50.110;9.372;2022-08-20T18:38:28;21.46513119242736;;;21.125;70.38250939626263
15558;BME280;7880;50.110;9.372;2022-08-20T18:43:31;21.273499926092335;;;20.812;72.71589691111842
15558;BME280;7880;50.110;9.372;2022-08-20T18:48:35;21.00118253371329;;;20.562;75.79301738152435
15558;BME280;7880;50.110;9.372;2022-08-20T18:53:46;20.738951772783185;;;20.187;76.78251909745079
15558;BME280;7880;50.110;9.372;2022-08-20T18:58:53;20.79442359888926;;;20.25;75.19394874978315
15558;BME280;7880;50.110;9.372;2022-08-20T19:03:51;20.668351317761697;;;20.187;72.95948052247964
15558;BME280;7880;50.110;9.372;2022-08-20T19:09:00;20.59775091978372;;;20.125;74.72532344363533
15558;BME280;7880;50.110;9.372;2022-08-20T19:14:11;20.678437093558024;;;20.125;74.3820478308492
15558;BME280;7880;50.110;9.372;2022-08-20T19:18:41;20.446464544773335;;;20.062;75.07328229600765
15558;BME280;7880;50.110;9.372;2022-08-20T19:23:47;20.37082145549357;;;20.0;75.39507771809176
15558;BME280;7880;50.110;9.372;2022-08-20T19:28:45;20.350649976078422;;;19.875;73.64482502458172
15558;BME280;7880;50.110;9.372;2022-08-20T19:33:48;20.214492611825698;;;19.812;72.61688382601227
15558;BME280;7880;50.110;9.372;2022-08-20T19:38:53;20.108592586312444;;;19.687;71.36550435145296
15558;BME280;7880;50.110;9.372;2022-08-20T19:44:06;19.85645018501673;;;19.437;71.59922566079877
15558;BME280;7880;50.110;9.372;2022-08-20T19:49:11;19.87662155034486;;;19.375;71.14351378388403
15558;BME280;7880;50.110;9.372;2022-08-20T19:54:03;19.750550593441584;;;19.25;72.32778208178794
15558;BME280;7880;50.110;9.372;2022-08-20T19:59:19;19.690036598738516;;;19.187;70.96274827847114
15558;BME280;7880;50.110;9.372;2022-08-20T20:04:16;19.629522645944963;;;19.125;72.80204213391238
15558;BME280;7880;50.110;9.372;2022-08-20T20:09:19;19.46310949185863;;;18.937;73.8362641466751
15558;BME280;7880;50.110;9.372;2022-08-20T20:14:28;19.40763851092779;;;18.875;73.6706416033591
15558;BME280;7880;50.110;9.372;2022-08-20T20:19:27;19.442938221991064;;;18.875;73.75406470324177
15558;BME280;7880;50.110;9.372;2022-08-20T20:24:45;19.28661103840568;;;18.687;74.49820106477279
15558;BME280;7880;50.110;9.372;2022-08-20T20:29:35;18.958829142153263;;;18.375;75.46834751742135
15558;BME280;7880;50.110;9.372;2022-08-20T20:34:38;18.89831569576636;;;18.375;75.13613708430938
15558;BME280;7880;50.110;9.372;2022-08-20T20:39:44;18.857973421458155;;;18.375;75.73845403077377
15558;BME280;7880;50.110;9.372;2022-08-20T20:44:46;18.787374486238697;;;18.25;75.15888699041527
15558;BME280;7880;50.110;9.372;2022-08-20T20:49:51;18.74198948657722;;;18.125;78.42276452484411
15558;BME280;7880;50.110;9.372;2022-08-20T20:55:07;18.419252391072224;;;17.875;81.87963390804526
15558;BME280;7880;50.110;9.372;2022-08-20T20:59:55;18.35369656421244;;;17.687;82.31124865672227
15558;BME280;7880;50.110;9.372;2022-08-20T21:05:00;18.197371329419546;;;17.562;82.8188467142234
15558;BME280;7880;50.110;9.372;2022-08-20T21:10:05;17.91497806585976;;;17.312;83.13680541710308
15558;BME280;7880;50.110;9.372;2022-08-20T21:15:10;18.01078996369615;;;17.375;82.67160050177824
15558;BME280;7880;50.110;9.372;2022-08-20T21:20:20;17.940191712998786;;;17.312;82.61634173040046
15558;BME280;7880;50.110;9.372;2022-08-20T21:25:19;17.854465342412006;;;17.312;82.4581485761517
15558;BME280;7880;50.110;9.372;2022-08-20T21:30:24;17.83429444390931;;;17.125;82.77628849618223
15558;BME280;7880;50.110;9.372;2022-08-20T21:35:27;17.672927423525834;;;17.062;82.59436118879128
15558;BME280;7880;50.110;9.372;2022-08-20T21:40:31;17.698141000815667;;;17.0;82.67162804565605
15558;BME280;7880;50.110;9.372;2022-08-20T21:45:36;17.440962853847303;;;16.812;83.88734097460292
15558;BME280;7880;50.110;9.372;2022-08-20T21:50:43;17.087974472908535;;;16.625;84.85651885549284
15558;BME280;7880;50.110;9.372;2022-08-20T21:55:43;16.982078236714006;;;16.437;84.5044430836306
15558;BME280;7880;50.110;9.372;2022-08-20T22:00:51;16.99720626259805;;;16.375;83.82459763749748
15558;BME280;7880;50.110;9.372;2022-08-20T22:05:50;16.775328812148654;;;16.25;83.58299041821984
15558;BME280;7880;50.110;9.372;2022-08-20T22:11:00;16.891310136415996;;;16.312;83.43013581834934
15558;BME280;7880;50.110;9.372;2022-08-20T22:15:59;16.946779519837584;;;16.375;82.97800087698712
15558;BME280;7880;50.110;9.372;2022-08-20T22:21:13;16.704731559712673;;;16.125;84.54391541441522
15558;BME280;7880;50.110;9.372;2022-08-20T22:26:07;16.41730047799647;;;15.937;86.21918403871663
15558;BME280;7880;50.110;9.372;2022-08-20T22:31:14;16.487897498183884;;;15.937;85.48824039924703
15558;BME280;7880;50.110;9.372;2022-08-20T22:36:19;16.54840927517507;;;15.937;85.05357811901516
15558;BME280;7880;50.110;9.372;2022-08-20T22:41:21;16.523196029668906;;;15.812;84.747772978874
15558;BME280;7880;50.110;9.372;2022-08-20T22:46:25;16.210552389879012;;;15.625;86.46173461299679
15558;BME280;7880;50.110;9.372;2022-08-20T22:51:29;16.139955593791093;;;15.5;87.04318087975167
15558;BME280;7880;50.110;9.372;2022-08-20T22:56:31;16.382001989294075;;;15.687;85.39161144484287
15558;BME280;7880;50.110;9.372;2022-08-20T23:01:35;16.15508347386494;;;15.625;86.29622330980725
15558;BME280;7880;50.110;9.372;2022-08-20T23:06:40;16.220637651119613;;;15.562;84.99674625623786
15558;BME280;7880;50.110;9.372;2022-08-20T23:11:43;16.008847409539158;;;15.437;86.54532768974292
15558;BME280;7880;50.110;9.372;2022-08-20T23:16:55;15.872696811053903;;;15.312;87.14024435309003
15558;BME280;7880;50.110;9.372;2022-08-20T23:21:50;15.907995093992213;;;15.312;86.94792765889096
15558;BME280;7880;50.110;9.372;2022-08-20T23:26:52;15.988676937116542;;;15.375;85.67245440745366
15558;BME280;7880;50.110;9.372;2022-08-20T23:31:56;15.973549085855485;;;15.437;85.91499714155107
15558;BME280;7880;50.110;9.372;2022-08-20T23:37:00;15.62056663336698;;;15.125;87.9916928144554
15558;BME280;7880;50.110;9.372;2022-08-20T23:42:05;15.857568979874486;;;15.187;86.24179804853331
15558;BME280;7880;50.110;9.372;2022-08-20T23:47:17;15.640737020806409;;;15.062;86.17515796298322
15558;BME280;7880;50.110;9.372;2022-08-20T23:52:14;15.691163009777664;;;15.125;86.21261319340296
15558;BME280;7880;50.110;9.372;2022-08-20T23:57:19;15.479374051676132;;;15.0;87.40826621093464
